createdAt,value
2022-10-13T00:00:06.496Z,101406.81
2022-10-13T00:03:28.327Z,101413.88
2022-10-13T00:06:50.924Z,101408.72
2022-10-13T00:13:31.522Z,101407.66
2022-10-13T00:16:55.221Z,101402.50
2022-10-13T00:20:11.471Z,101416.84
2022-10-13T00:23:18.695Z,101414.41
2022-10-13T00:26:31.785Z,101408.19
2022-10-13T00:29:35.861Z,101401.41
2022-10-13T00:32:45.839Z,101401.66
2022-10-13T00:35:57.736Z,101401.13
2022-10-13T00:39:09.647Z,101404.91
2022-10-13T00:42:16.267Z,101397.06
2022-10-13T00:45:33.414Z,101410.88
2022-10-13T00:48:45.377Z,101413.31
2022-10-13T00:51:51.044Z,101403.53
2022-10-13T00:55:08.302Z,101397.88
2022-10-13T00:58:28.042Z,101405.44
2022-10-13T01:01:50.198Z,101402.47
2022-10-13T01:04:56.928Z,101395.13
2022-10-13T01:08:22.071Z,101389.13
2022-10-13T01:12:12.228Z,101387.00
2022-10-13T01:16:07.029Z,101387.53
2022-10-13T01:19:49.719Z,101399.47
2022-10-13T01:23:15.142Z,101397.84
2022-10-13T01:26:25.709Z,101401.09
2022-10-13T01:30:07.106Z,101400.28
2022-10-13T01:33:21.845Z,101404.63
2022-10-13T01:36:58.024Z,101391.56
2022-10-13T01:40:51.731Z,101399.16
2022-10-13T01:44:13.188Z,101390.53
2022-10-13T01:47:24.073Z,101382.13
2022-10-13T01:50:47.098Z,101390.78
2022-10-13T01:54:07.131Z,101388.84
2022-10-13T01:57:43.442Z,101395.09
2022-10-13T02:01:25.423Z,101385.03
2022-10-13T02:05:03.047Z,101382.06
2022-10-13T02:08:59.001Z,101380.63
2022-10-13T02:12:50.534Z,101376.56
2022-10-13T02:16:01.258Z,101375.47
2022-10-13T02:19:23.597Z,101376.03
2022-10-13T02:22:51.175Z,101381.44
2022-10-13T02:25:58.065Z,101388.75
2022-10-13T02:29:11.955Z,101392.28
2022-10-13T02:32:17.549Z,101385.22
2022-10-13T02:35:31.145Z,101379.81
2022-10-13T02:38:53.807Z,101385.25
2022-10-13T02:41:57.214Z,101386.88
2022-10-13T02:45:01.606Z,101382.53
2022-10-13T02:48:12.263Z,101384.69
2022-10-13T02:51:40.054Z,101384.13
2022-10-13T02:54:58.401Z,101384.94
2022-10-13T02:58:14.291Z,101390.03
2022-10-13T03:01:21.410Z,101387.56
2022-10-13T03:04:25.932Z,101386.22
2022-10-13T03:07:31.308Z,101380.56
2022-10-13T03:10:47.917Z,101384.31
2022-10-13T03:14:08.793Z,101377.25
2022-10-13T03:17:35.805Z,101377.53
2022-10-13T03:21:00.166Z,101379.69
2022-10-13T03:24:10.007Z,101380.50
2022-10-13T03:27:33.826Z,101382.69
2022-10-13T03:30:51.828Z,101376.97
2022-10-13T03:34:14.792Z,101378.03
2022-10-13T03:37:42.909Z,101376.38
2022-10-13T03:41:09.766Z,101379.63
2022-10-13T03:44:14.537Z,101379.88
2022-10-13T03:47:18.316Z,101377.69
2022-10-13T03:50:29.406Z,101374.69
2022-10-13T03:53:45.246Z,101380.13
2022-10-13T03:57:02.057Z,101372.81
2022-10-13T04:00:24.739Z,101380.16
2022-10-13T04:04:01.389Z,101377.16
2022-10-13T04:07:22.405Z,101374.72
2022-10-13T04:10:45.307Z,101373.34
2022-10-13T04:13:48.663Z,101375.50
2022-10-13T04:16:52.951Z,101370.63
2022-10-13T04:19:59.317Z,101373.06
2022-10-13T04:23:16.578Z,101372.72
2022-10-13T04:26:39.677Z,101366.19
2022-10-13T04:30:07.847Z,101369.09
2022-10-13T04:33:30.814Z,101370.94
2022-10-13T04:36:43.160Z,101369.91
2022-10-13T04:40:06.886Z,101374.28
2022-10-13T04:43:23.968Z,101365.63
2022-10-13T04:46:43.716Z,101376.19
2022-10-13T04:50:07.728Z,101372.69
2022-10-13T04:53:27.649Z,101366.72
2022-10-13T04:56:47.853Z,101371.56
2022-10-13T04:59:52.017Z,101380.81
2022-10-13T05:03:06.695Z,101368.63
2022-10-13T05:06:23.357Z,101375.91
2022-10-13T05:09:48.560Z,101377.16
2022-10-13T05:13:07.524Z,101366.66
2022-10-13T05:16:47.441Z,101370.13
2022-10-13T05:19:55.280Z,101368.56
2022-10-13T05:23:05.746Z,101363.38
2022-10-13T05:26:24.528Z,101367.38
2022-10-13T05:29:59.713Z,101380.41
2022-10-13T05:33:30.069Z,101378.03
2022-10-13T05:36:45.047Z,101383.44
2022-10-13T05:39:50.641Z,101378.78
2022-10-13T05:47:38.771Z,101382.47
2022-10-13T05:51:11.538Z,101388.16
2022-10-13T05:54:23.304Z,101392.50
2022-10-13T05:57:43.357Z,101399.44
2022-10-13T06:01:22.285Z,101397.47
2022-10-13T06:04:48.095Z,101397.50
2022-10-13T06:08:01.958Z,101403.88
2022-10-13T06:11:13.470Z,101402.59
2022-10-13T06:15:28.764Z,101402.22
2022-10-13T06:18:38.099Z,101406.78
2022-10-13T06:22:05.648Z,101408.38
2022-10-13T06:25:28.822Z,101410.81
2022-10-13T06:28:55.604Z,101405.97
2022-10-13T06:33:22.575Z,101407.72
2022-10-13T06:36:32.011Z,101406.63
2022-10-13T06:39:51.130Z,101410.94
2022-10-13T06:43:13.426Z,101409.09
2022-10-13T06:46:40.461Z,101405.94
2022-10-13T06:50:02.054Z,101395.50
2022-10-13T06:53:21.322Z,101400.09
2022-10-13T06:56:49.425Z,101401.22
2022-10-13T07:00:10.992Z,101405.66
2022-10-13T07:03:52.536Z,101400.50
2022-10-13T07:07:08.723Z,101401.66
2022-10-13T07:10:32.794Z,101401.66
2022-10-13T07:13:56.156Z,101403.53
2022-10-13T07:17:21.109Z,101403.31
2022-10-13T07:21:43.738Z,101404.94
2022-10-13T07:24:47.977Z,101407.91
2022-10-13T07:28:01.533Z,101400.84
2022-10-13T07:31:55.409Z,101398.16
2022-10-13T07:35:10.464Z,101391.91
2022-10-13T07:38:22.282Z,101395.72
2022-10-13T07:41:37.136Z,101396.47
2022-10-13T07:50:24.472Z,101398.81
2022-10-13T07:53:43.394Z,101399.56
2022-10-13T07:57:58.329Z,101403.03
2022-10-13T08:01:30.469Z,101394.56
2022-10-13T08:09:42.662Z,101395.56
2022-10-13T08:13:15.763Z,101389.78
2022-10-13T08:17:17.421Z,101390.50
2022-10-13T08:20:41.207Z,101384.13
2022-10-13T08:24:13.090Z,101379.25
2022-10-13T08:28:16.061Z,101374.84
2022-10-13T08:31:43.857Z,101375.91
2022-10-13T08:35:06.722Z,101368.44
2022-10-13T08:38:22.928Z,101366.94
2022-10-13T08:42:18.233Z,101366.38
2022-10-13T08:45:47.434Z,101371.78
2022-10-13T08:49:09.070Z,101356.75
2022-10-13T08:53:04.666Z,101358.22
2022-10-13T09:01:37.507Z,101357.50
2022-10-13T09:05:48.597Z,101350.03
2022-10-13T09:10:04.537Z,101346.75
2022-10-13T09:13:32.762Z,101343.03
2022-10-13T09:25:22.655Z,101343.56
2022-10-13T09:28:51.320Z,101341.09
2022-10-13T09:33:11.547Z,101342.84
2022-10-13T09:37:13.530Z,101342.03
2022-10-13T09:40:56.933Z,101337.69
2022-10-13T09:44:36.063Z,101335.06
2022-10-13T09:47:44.091Z,101332.31
2022-10-13T09:56:34.509Z,101323.75
2022-10-13T09:59:52.526Z,101320.59
2022-10-13T10:03:52.989Z,101311.38
2022-10-13T10:07:16.626Z,101322.13
2022-10-13T10:10:39.933Z,101315.53
2022-10-13T10:14:16.116Z,101309.44
2022-10-13T10:22:04.841Z,101293.88
2022-10-13T10:30:28.497Z,101286.91
2022-10-13T10:34:12.426Z,101284.91
2022-10-13T10:38:12.170Z,101279.66
2022-10-13T10:42:32.944Z,101279.59
2022-10-13T10:46:44.595Z,101271.06
2022-10-13T10:50:17.804Z,101267.00
2022-10-13T10:54:45.048Z,101256.94
2022-10-13T10:58:24.676Z,101259.56
2022-10-13T11:01:56.260Z,101258.19
2022-10-13T11:05:33.825Z,101245.47
2022-10-13T11:14:08.187Z,101229.25
2022-10-13T11:18:02.676Z,101229.28
2022-10-13T11:27:48.104Z,101214.06
2022-10-13T11:31:17.714Z,101208.09
2022-10-13T11:34:42.752Z,101204.66
2022-10-13T11:38:17.778Z,101193.94
2022-10-13T11:41:31.820Z,101198.50
2022-10-13T11:44:58.208Z,101191.69
2022-10-13T11:48:18.904Z,101190.13
2022-10-13T11:51:32.724Z,101180.25
2022-10-13T11:54:56.860Z,101174.38
2022-10-13T11:58:22.133Z,101175.09
2022-10-13T12:05:57.545Z,101170.78
2022-10-13T12:10:02.981Z,101158.22
2022-10-13T12:13:28.781Z,101157.09
2022-10-13T12:16:46.930Z,101154.72
2022-10-13T12:20:08.538Z,101150.84
2022-10-13T12:23:31.578Z,101151.41
2022-10-13T12:26:37.623Z,101146.81
2022-10-13T12:34:33.451Z,101139.44
2022-10-13T12:38:29.486Z,101139.31
2022-10-13T12:41:36.472Z,101123.06
2022-10-13T12:45:01.178Z,101128.88
2022-10-13T12:48:33.438Z,101125.69
2022-10-13T12:51:38.971Z,101124.53
2022-10-13T12:55:31.870Z,101123.91
2022-10-13T12:59:24.550Z,101109.75
2022-10-13T13:07:43.983Z,101119.78
2022-10-13T13:16:31.311Z,101111.22
2022-10-13T13:19:37.167Z,101103.31
2022-10-13T13:22:52.205Z,101103.94
2022-10-13T13:26:13.685Z,101095.50
2022-10-13T13:29:30.079Z,101096.75
2022-10-13T13:32:42.383Z,101094.53
2022-10-13T13:35:54.278Z,101093.47
2022-10-13T13:38:59.460Z,101089.09
2022-10-13T13:42:15.553Z,101087.16
2022-10-13T13:45:23.254Z,101087.16
2022-10-13T13:48:32.880Z,101088.78
2022-10-13T13:51:39.262Z,101077.44
2022-10-13T13:54:50.830Z,101076.38
2022-10-13T13:58:03.995Z,101081.66
2022-10-13T14:01:13.870Z,101085.94
2022-10-13T14:04:29.730Z,101079.69
2022-10-13T14:07:40.157Z,101080.63
2022-10-13T14:10:48.720Z,101085.28
2022-10-13T14:14:13.715Z,101078.34
2022-10-13T14:17:31.265Z,101075.81
2022-10-13T14:20:56.021Z,101077.09
2022-10-13T14:24:19.459Z,101077.75
2022-10-13T14:27:43.890Z,101067.44
2022-10-13T14:30:59.592Z,101065.69
2022-10-13T14:34:10.017Z,101076.03
2022-10-13T14:37:36.465Z,101067.97
2022-10-13T14:41:11.319Z,101063.78
2022-10-13T14:44:24.972Z,101064.13
2022-10-13T14:47:35.642Z,101057.97
2022-10-13T14:51:02.212Z,101060.78
2022-10-13T14:54:32.104Z,101057.38
2022-10-13T14:58:00.170Z,101062.91
2022-10-13T15:01:20.599Z,101055.63
2022-10-13T15:04:43.114Z,101049.38
2022-10-13T15:08:06.001Z,101050.97
2022-10-13T15:11:18.013Z,101058.06
2022-10-13T15:14:41.045Z,101050.50
2022-10-13T15:18:06.439Z,101055.66
2022-10-13T15:21:30.134Z,101053.06
2022-10-13T15:24:52.256Z,101058.09
2022-10-13T15:28:20.342Z,101057.56
2022-10-13T15:31:44.038Z,101050.81
2022-10-13T15:35:05.113Z,101052.25
2022-10-13T15:38:28.054Z,101059.47
2022-10-13T15:41:48.152Z,101052.69
2022-10-13T15:45:12.539Z,101053.75
2022-10-13T15:48:37.165Z,101051.31
2022-10-13T15:51:51.224Z,101053.50
2022-10-13T15:55:07.093Z,101053.56
2022-10-13T15:58:38.136Z,101048.88
2022-10-13T16:02:01.163Z,101046.75
2022-10-13T16:05:17.307Z,101051.81
2022-10-13T16:08:33.173Z,101058.25
2022-10-13T16:11:40.733Z,101045.50
2022-10-13T16:14:44.043Z,101047.16
2022-10-13T16:18:00.087Z,101053.78
2022-10-13T16:21:18.300Z,101048.06
2022-10-13T16:24:29.607Z,101050.84
2022-10-13T16:27:46.134Z,101055.72
2022-10-13T16:31:13.031Z,101055.09
2022-10-13T16:34:37.987Z,101055.59
2022-10-13T16:37:43.371Z,101058.75
2022-10-13T16:40:54.230Z,101051.38
2022-10-13T16:44:01.135Z,101054.09
2022-10-13T16:47:21.522Z,101054.72
2022-10-13T16:50:35.187Z,101062.41
2022-10-13T16:53:42.603Z,101053.31
2022-10-13T16:56:56.888Z,101055.72
2022-10-13T17:00:18.817Z,101057.50
2022-10-13T17:03:28.848Z,101064.69
2022-10-13T17:06:51.803Z,101060.94
2022-10-13T17:10:26.650Z,101066.50
2022-10-13T17:13:45.778Z,101065.34
2022-10-13T17:17:07.646Z,101076.69
2022-10-13T17:20:29.782Z,101068.81
2022-10-13T17:23:48.645Z,101076.69
2022-10-13T17:27:03.519Z,101064.69
2022-10-13T17:30:19.870Z,101069.41
2022-10-13T17:33:49.734Z,101069.09
2022-10-13T17:37:21.277Z,101067.38
2022-10-13T17:40:35.343Z,101078.34
2022-10-13T17:43:58.753Z,101068.03
2022-10-13T17:47:26.086Z,101073.69
2022-10-13T17:50:29.827Z,101063.69
2022-10-13T17:53:34.018Z,101062.66
2022-10-13T17:56:40.672Z,101072.97
2022-10-13T17:59:43.654Z,101064.28
2022-10-13T18:02:47.585Z,101062.06
2022-10-13T18:05:55.394Z,101064.47
2022-10-13T18:09:17.737Z,101072.00
2022-10-13T18:12:37.794Z,101068.25
2022-10-13T18:15:57.820Z,101067.94
2022-10-13T18:19:24.846Z,101071.34
2022-10-13T18:22:45.741Z,101076.88
2022-10-13T18:26:05.784Z,101069.56
2022-10-13T18:29:21.849Z,101067.22
2022-10-13T18:32:41.610Z,101064.09
2022-10-13T18:36:01.712Z,101061.34
2022-10-13T18:39:25.781Z,101051.66
2022-10-13T18:42:46.549Z,101052.56
2022-10-13T18:46:10.755Z,101050.50
2022-10-13T18:49:23.234Z,101050.66
2022-10-13T18:52:26.989Z,101047.13
2022-10-13T18:55:48.660Z,101053.22
2022-10-13T18:59:06.550Z,101056.06
2022-10-13T19:02:27.459Z,101053.44
2022-10-13T19:05:39.471Z,101052.63
2022-10-13T19:08:49.153Z,101052.66
2022-10-13T19:11:52.285Z,101051.25
2022-10-13T19:15:16.481Z,101045.91
2022-10-13T19:18:32.960Z,101050.06
2022-10-13T19:21:58.398Z,101044.41
2022-10-13T19:25:22.256Z,101048.81
2022-10-13T19:28:38.820Z,101057.53
2022-10-13T19:31:55.541Z,101055.19
2022-10-13T19:35:20.532Z,101055.50
2022-10-13T19:38:36.741Z,101059.66
2022-10-13T19:41:44.730Z,101049.47
2022-10-13T19:44:53.738Z,101043.00
2022-10-13T19:48:02.052Z,101040.84
2022-10-13T19:51:20.620Z,101048.53
2022-10-13T19:54:45.391Z,101050.69
2022-10-13T19:58:08.386Z,101060.97
2022-10-13T20:01:29.453Z,101063.03
2022-10-13T20:04:51.566Z,101061.78
2022-10-13T20:08:14.386Z,101056.16
2022-10-13T20:11:38.744Z,101052.28
2022-10-13T20:15:00.679Z,101059.97
2022-10-13T20:18:21.480Z,101058.63
2022-10-13T20:21:37.628Z,101063.06
2022-10-13T20:24:59.368Z,101065.78
2022-10-13T20:28:23.598Z,101063.56
2022-10-13T20:31:45.707Z,101069.59
2022-10-13T20:35:02.300Z,101065.28
2022-10-13T20:38:23.086Z,101072.94
2022-10-13T20:41:51.336Z,101059.09
2022-10-13T20:45:06.655Z,101064.19
2022-10-13T20:48:45.269Z,101069.06
2022-10-13T20:51:55.762Z,101063.69
2022-10-13T20:55:15.455Z,101067.19
2022-10-13T20:58:41.498Z,101062.38
2022-10-13T21:01:54.747Z,101061.03
2022-10-13T21:04:58.529Z,101057.84
2022-10-13T21:08:06.593Z,101051.56
2022-10-13T21:11:11.993Z,101060.84
2022-10-13T21:14:14.636Z,101054.34
2022-10-13T21:17:24.566Z,101052.75
2022-10-13T21:20:30.903Z,101066.91
2022-10-13T21:23:44.507Z,101058.75
2022-10-13T21:26:50.555Z,101049.84
2022-10-13T21:30:04.479Z,101049.31
2022-10-13T21:33:20.368Z,101052.56
2022-10-13T21:36:37.033Z,101045.25
2022-10-13T21:39:54.489Z,101052.09
2022-10-13T21:43:04.604Z,101049.66
2022-10-13T21:46:19.551Z,101048.59
2022-10-13T21:49:26.209Z,101057.56
2022-10-13T21:52:42.335Z,101054.00
2022-10-13T21:55:59.213Z,101048.34
2022-10-13T21:59:21.653Z,101051.28
2022-10-13T22:02:44.112Z,101045.88
2022-10-13T22:06:07.109Z,101038.59
2022-10-13T22:09:23.743Z,101036.16
2022-10-13T22:12:29.970Z,101044.31
2022-10-13T22:15:35.602Z,101034.03
2022-10-13T22:18:50.242Z,101045.97
2022-10-13T22:22:13.176Z,101041.63
2022-10-13T22:25:33.335Z,101042.16
2022-10-13T22:28:56.067Z,101042.72
2022-10-13T22:32:21.162Z,101042.47
2022-10-13T22:35:45.049Z,101043.31
2022-10-13T22:39:05.320Z,101037.84
2022-10-13T22:42:25.109Z,101029.97
2022-10-13T22:45:45.350Z,101034.84
2022-10-13T22:49:07.485Z,101030.25
2022-10-13T22:52:24.302Z,101024.31
2022-10-13T22:55:47.193Z,101023.22
2022-10-13T22:59:11.262Z,101030.34
2022-10-13T23:02:14.331Z,101025.44
2022-10-13T23:05:19.642Z,101026.25
2022-10-13T23:08:38.010Z,101031.41
2022-10-13T23:11:47.497Z,101034.13
2022-10-13T23:15:13.939Z,101024.34
2022-10-13T23:18:44.910Z,101027.91
2022-10-13T23:22:15.197Z,101015.75
2022-10-13T23:25:30.806Z,101014.94
2022-10-13T23:28:41.600Z,101019.56
2022-10-13T23:31:58.086Z,101021.44
2022-10-13T23:35:13.862Z,101021.72
2022-10-13T23:38:36.572Z,101012.53
2022-10-13T23:41:59.833Z,101021.47
2022-10-13T23:45:38.861Z,101015.75
2022-10-13T23:49:07.833Z,101023.06
2022-10-13T23:52:19.924Z,101020.66
2022-10-13T23:55:29.424Z,101017.41
2022-10-13T23:58:53.899Z,101020.09
